sensor_id;sensor_type;location;lat;lon;timestamp;P1;durP1;ratioP1;P2;durP2;ratioP2
19944;SDS011;10134;50.952;6.930;2023-04-15T00:01:37;8.43;;;3.38;;
19944;SDS011;10134;50.952;6.930;2023-04-15T00:04:05;9.25;;;3.70;;
19944;SDS011;10134;50.952;6.930;2023-04-15T00:06:32;6.78;;;3.47;;
19944;SDS011;10134;50.952;6.930;2023-04-15T00:08:59;6.28;;;2.90;;
19944;SDS011;10134;50.952;6.930;2023-04-15T00:11:27;8.27;;;3.85;;
19944;SDS011;10134;50.952;6.930;2023-04-15T00:13:55;6.90;;;3.58;;
19944;SDS011;10134;50.952;6.930;2023-04-15T00:16:22;5.82;;;2.90;;
19944;SDS011;10134;50.952;6.930;2023-04-15T00:18:49;8.13;;;3.47;;
19944;SDS011;10134;50.952;6.930;2023-04-15T00:21:17;10.27;;;3.72;;
19944;SDS011;10134;50.952;6.930;2023-04-15T00:23:44;9.40;;;4.38;;
19944;SDS011;10134;50.952;6.930;2023-04-15T00:26:15;6.88;;;3.60;;
19944;SDS011;10134;50.952;6.930;2023-04-15T00:28:42;8.38;;;3.42;;
19944;SDS011;10134;50.952;6.930;2023-04-15T00:31:10;9.35;;;4.60;;
19944;SDS011;10134;50.952;6.930;2023-04-15T00:33:39;7.18;;;3.90;;
19944;SDS011;10134;50.952;6.930;2023-04-15T00:36:06;8.60;;;3.50;;
19944;SDS011;10134;50.952;6.930;2023-04-15T00:38:35;6.32;;;3.45;;
19944;SDS011;10134;50.952;6.930;2023-04-15T00:41:04;5.55;;;3.28;;
19944;SDS011;10134;50.952;6.930;2023-04-15T00:43:32;7.00;;;4.05;;
19944;SDS011;10134;50.952;6.930;2023-04-15T00:45:59;5.60;;;3.22;;
19944;SDS011;10134;50.952;6.930;2023-04-15T00:48:28;6.65;;;3.60;;
19944;SDS011;10134;50.952;6.930;2023-04-15T00:50:56;7.90;;;4.00;;
19944;SDS011;10134;50.952;6.930;2023-04-15T00:53:24;10.88;;;3.80;;
19944;SDS011;10134;50.952;6.930;2023-04-15T00:55:51;10.77;;;4.00;;
19944;SDS011;10134;50.952;6.930;2023-04-15T00:58:19;7.22;;;4.30;;
19944;SDS011;10134;50.952;6.930;2023-04-15T01:00:46;9.75;;;3.70;;
19944;SDS011;10134;50.952;6.930;2023-04-15T01:03:15;4.85;;;3.72;;
19944;SDS011;10134;50.952;6.930;2023-04-15T01:05:42;8.23;;;4.25;;
19944;SDS011;10134;50.952;6.930;2023-04-15T01:08:09;9.38;;;3.85;;
19944;SDS011;10134;50.952;6.930;2023-04-15T01:10:37;8.55;;;4.03;;
19944;SDS011;10134;50.952;6.930;2023-04-15T01:13:05;8.73;;;3.83;;
19944;SDS011;10134;50.952;6.930;2023-04-15T01:15:33;8.07;;;3.63;;
19944;SDS011;10134;50.952;6.930;2023-04-15T01:18:02;7.00;;;3.95;;
19944;SDS011;10134;50.952;6.930;2023-04-15T01:20:29;8.60;;;3.75;;
19944;SDS011;10134;50.952;6.930;2023-04-15T01:22:59;6.18;;;3.47;;
19944;SDS011;10134;50.952;6.930;2023-04-15T01:25:30;11.85;;;3.92;;
19944;SDS011;10134;50.952;6.930;2023-04-15T01:27:59;10.30;;;3.65;;
19944;SDS011;10134;50.952;6.930;2023-04-15T01:30:26;8.90;;;3.40;;
19944;SDS011;10134;50.952;6.930;2023-04-15T01:32:53;5.75;;;3.25;;
19944;SDS011;10134;50.952;6.930;2023-04-15T01:35:21;6.70;;;3.53;;
19944;SDS011;10134;50.952;6.930;2023-04-15T01:37:50;5.47;;;2.67;;
19944;SDS011;10134;50.952;6.930;2023-04-15T01:40:18;6.95;;;3.67;;
19944;SDS011;10134;50.952;6.930;2023-04-15T01:42:46;8.45;;;3.35;;
19944;SDS011;10134;50.952;6.930;2023-04-15T01:45:14;5.35;;;3.17;;
19944;SDS011;10134;50.952;6.930;2023-04-15T01:47:42;7.00;;;3.33;;
19944;SDS011;10134;50.952;6.930;2023-04-15T01:50:09;4.63;;;3.00;;
19944;SDS011;10134;50.952;6.930;2023-04-15T01:52:36;7.97;;;3.05;;
19944;SDS011;10134;50.952;6.930;2023-04-15T01:55:04;7.47;;;3.40;;
19944;SDS011;10134;50.952;6.930;2023-04-15T01:57:33;7.75;;;3.90;;
19944;SDS011;10134;50.952;6.930;2023-04-15T02:00:00;6.95;;;3.72;;
19944;SDS011;10134;50.952;6.930;2023-04-15T02:02:38;6.20;;;3.30;;
19944;SDS011;10134;50.952;6.930;2023-04-15T02:05:06;6.70;;;3.50;;
19944;SDS011;10134;50.952;6.930;2023-04-15T02:07:36;5.57;;;3.50;;
19944;SDS011;10134;50.952;6.930;2023-04-15T02:10:03;6.15;;;3.22;;
19944;SDS011;10134;50.952;6.930;2023-04-15T02:12:31;4.97;;;2.83;;
19944;SDS011;10134;50.952;6.930;2023-04-15T02:14:59;5.07;;;2.70;;
19944;SDS011;10134;50.952;6.930;2023-04-15T02:17:26;8.70;;;3.13;;
19944;SDS011;10134;50.952;6.930;2023-04-15T02:19:54;5.13;;;3.20;;
19944;SDS011;10134;50.952;6.930;2023-04-15T02:22:23;7.30;;;2.65;;
19944;SDS011;10134;50.952;6.930;2023-04-15T02:24:51;4.75;;;3.05;;
19944;SDS011;10134;50.952;6.930;2023-04-15T02:27:18;6.60;;;3.77;;
19944;SDS011;10134;50.952;6.930;2023-04-15T02:29:45;5.50;;;3.47;;
19944;SDS011;10134;50.952;6.930;2023-04-15T02:32:13;6.07;;;2.80;;
19944;SDS011;10134;50.952;6.930;2023-04-15T02:34:40;7.03;;;3.50;;
19944;SDS011;10134;50.952;6.930;2023-04-15T02:37:10;4.30;;;3.30;;
19944;SDS011;10134;50.952;6.930;2023-04-15T02:39:38;4.63;;;3.20;;
19944;SDS011;10134;50.952;6.930;2023-04-15T02:42:05;7.23;;;3.37;;
19944;SDS011;10134;50.952;6.930;2023-04-15T02:44:33;5.40;;;3.20;;
19944;SDS011;10134;50.952;6.930;2023-04-15T02:47:03;8.80;;;3.37;;
19944;SDS011;10134;50.952;6.930;2023-04-15T02:49:32;6.13;;;3.40;;
19944;SDS011;10134;50.952;6.930;2023-04-15T02:52:00;8.87;;;3.00;;
19944;SDS011;10134;50.952;6.930;2023-04-15T02:54:27;5.57;;;3.57;;
19944;SDS011;10134;50.952;6.930;2023-04-15T02:56:54;6.50;;;3.27;;
19944;SDS011;10134;50.952;6.930;2023-04-15T02:59:22;5.33;;;3.00;;
19944;SDS011;10134;50.952;6.930;2023-04-15T03:01:49;8.30;;;3.55;;
19944;SDS011;10134;50.952;6.930;2023-04-15T03:04:17;6.13;;;3.03;;
19944;SDS011;10134;50.952;6.930;2023-04-15T03:06:44;4.93;;;3.00;;
19944;SDS011;10134;50.952;6.930;2023-04-15T03:09:12;6.80;;;3.10;;
19944;SDS011;10134;50.952;6.930;2023-04-15T03:11:39;7.53;;;3.40;;
19944;SDS011;10134;50.952;6.930;2023-04-15T03:14:08;7.83;;;4.27;;
19944;SDS011;10134;50.952;6.930;2023-04-15T03:16:40;8.00;;;4.20;;
19944;SDS011;10134;50.952;6.930;2023-04-15T03:19:07;7.47;;;3.57;;
19944;SDS011;10134;50.952;6.930;2023-04-15T03:21:35;7.57;;;3.23;;
19944;SDS011;10134;50.952;6.930;2023-04-15T03:24:02;6.67;;;3.10;;
19944;SDS011;10134;50.952;6.930;2023-04-15T03:26:30;4.43;;;2.70;;
19944;SDS011;10134;50.952;6.930;2023-04-15T03:29:06;3.67;;;2.67;;
19944;SDS011;10134;50.952;6.930;2023-04-15T03:31:34;9.37;;;3.30;;
19944;SDS011;10134;50.952;6.930;2023-04-15T03:34:01;4.28;;;2.90;;
19944;SDS011;10134;50.952;6.930;2023-04-15T03:36:29;5.43;;;2.93;;
19944;SDS011;10134;50.952;6.930;2023-04-15T03:38:58;5.20;;;3.30;;
19944;SDS011;10134;50.952;6.930;2023-04-15T03:41:28;8.93;;;3.60;;
19944;SDS011;10134;50.952;6.930;2023-04-15T03:43:55;6.00;;;2.83;;
19944;SDS011;10134;50.952;6.930;2023-04-15T03:46:23;8.83;;;3.10;;
19944;SDS011;10134;50.952;6.930;2023-04-15T03:48:50;7.33;;;3.23;;
19944;SDS011;10134;50.952;6.930;2023-04-15T03:51:17;5.47;;;3.13;;
19944;SDS011;10134;50.952;6.930;2023-04-15T03:53:45;7.10;;;3.13;;
19944;SDS011;10134;50.952;6.930;2023-04-15T03:56:12;5.03;;;2.83;;
19944;SDS011;10134;50.952;6.930;2023-04-15T03:58:39;7.47;;;3.80;;
19944;SDS011;10134;50.952;6.930;2023-04-15T04:01:07;7.50;;;3.80;;
19944;SDS011;10134;50.952;6.930;2023-04-15T04:03:35;7.77;;;3.53;;
19944;SDS011;10134;50.952;6.930;2023-04-15T04:06:03;7.03;;;3.83;;
19944;SDS011;10134;50.952;6.930;2023-04-15T04:08:31;8.53;;;4.00;;
19944;SDS011;10134;50.952;6.930;2023-04-15T04:10:58;10.80;;;4.80;;
19944;SDS011;10134;50.952;6.930;2023-04-15T04:13:25;10.07;;;4.20;;
19944;SDS011;10134;50.952;6.930;2023-04-15T04:15:53;9.67;;;4.73;;
19944;SDS011;10134;50.952;6.930;2023-04-15T04:18:20;12.17;;;4.57;;
19944;SDS011;10134;50.952;6.930;2023-04-15T04:20:47;11.87;;;4.37;;
19944;SDS011;10134;50.952;6.930;2023-04-15T04:23:15;8.00;;;4.20;;
19944;SDS011;10134;50.952;6.930;2023-04-15T04:25:42;8.33;;;4.20;;
19944;SDS011;10134;50.952;6.930;2023-04-15T04:28:09;7.87;;;4.10;;
19944;SDS011;10134;50.952;6.930;2023-04-15T04:30:37;7.07;;;4.13;;
19944;SDS011;10134;50.952;6.930;2023-04-15T04:33:04;6.33;;;2.90;;
19944;SDS011;10134;50.952;6.930;2023-04-15T04:35:32;7.83;;;4.10;;
19944;SDS011;10134;50.952;6.930;2023-04-15T04:38:03;9.23;;;4.07;;
19944;SDS011;10134;50.952;6.930;2023-04-15T04:40:30;8.73;;;3.90;;
19944;SDS011;10134;50.952;6.930;2023-04-15T04:42:57;7.90;;;4.53;;
19944;SDS011;10134;50.952;6.930;2023-04-15T04:45:25;9.50;;;4.63;;
19944;SDS011;10134;50.952;6.930;2023-04-15T04:47:52;10.70;;;4.80;;
19944;SDS011;10134;50.952;6.930;2023-04-15T04:50:20;9.73;;;5.23;;
19944;SDS011;10134;50.952;6.930;2023-04-15T04:52:47;10.43;;;4.80;;
19944;SDS011;10134;50.952;6.930;2023-04-15T04:55:14;11.70;;;5.33;;
19944;SDS011;10134;50.952;6.930;2023-04-15T04:57:42;12.30;;;5.60;;
19944;SDS011;10134;50.952;6.930;2023-04-15T05:00:09;9.83;;;4.77;;
19944;SDS011;10134;50.952;6.930;2023-04-15T05:02:38;11.63;;;5.87;;
19944;SDS011;10134;50.952;6.930;2023-04-15T05:05:07;9.03;;;5.97;;
19944;SDS011;10134;50.952;6.930;2023-04-15T05:07:35;10.23;;;4.63;;
19944;SDS011;10134;50.952;6.930;2023-04-15T05:10:03;11.30;;;5.70;;
19944;SDS011;10134;50.952;6.930;2023-04-15T05:12:30;9.37;;;4.73;;
19944;SDS011;10134;50.952;6.930;2023-04-15T05:14:58;9.97;;;5.50;;
19944;SDS011;10134;50.952;6.930;2023-04-15T05:17:25;9.50;;;5.07;;
19944;SDS011;10134;50.952;6.930;2023-04-15T05:19:53;12.77;;;4.70;;
19944;SDS011;10134;50.952;6.930;2023-04-15T05:22:20;6.73;;;4.37;;
19944;SDS011;10134;50.952;6.930;2023-04-15T05:24:47;11.80;;;4.80;;
19944;SDS011;10134;50.952;6.930;2023-04-15T05:27:15;8.10;;;4.93;;
19944;SDS011;10134;50.952;6.930;2023-04-15T05:29:42;7.73;;;5.10;;
19944;SDS011;10134;50.952;6.930;2023-04-15T05:32:09;8.57;;;5.07;;
19944;SDS011;10134;50.952;6.930;2023-04-15T05:34:37;7.73;;;5.80;;
19944;SDS011;10134;50.952;6.930;2023-04-15T05:37:04;12.83;;;5.40;;
19944;SDS011;10134;50.952;6.930;2023-04-15T05:39:31;12.90;;;5.67;;
19944;SDS011;10134;50.952;6.930;2023-04-15T05:41:59;8.60;;;5.30;;
19944;SDS011;10134;50.952;6.930;2023-04-15T05:44:26;8.80;;;5.33;;
19944;SDS011;10134;50.952;6.930;2023-04-15T05:46:54;9.80;;;5.30;;
19944;SDS011;10134;50.952;6.930;2023-04-15T05:49:21;8.23;;;5.77;;
19944;SDS011;10134;50.952;6.930;2023-04-15T05:51:48;11.03;;;5.47;;
19944;SDS011;10134;50.952;6.930;2023-04-15T05:54:16;9.50;;;5.90;;
19944;SDS011;10134;50.952;6.930;2023-04-15T05:56:46;16.03;;;6.30;;
19944;SDS011;10134;50.952;6.930;2023-04-15T05:59:13;12.17;;;5.50;;
19944;SDS011;10134;50.952;6.930;2023-04-15T06:01:40;7.77;;;5.53;;
19944;SDS011;10134;50.952;6.930;2023-04-15T06:04:08;9.57;;;5.30;;
19944;SDS011;10134;50.952;6.930;2023-04-15T06:06:36;8.17;;;5.10;;
19944;SDS011;10134;50.952;6.930;2023-04-15T06:09:04;10.13;;;5.20;;
19944;SDS011;10134;50.952;6.930;2023-04-15T06:11:31;7.87;;;5.70;;
19944;SDS011;10134;50.952;6.930;2023-04-15T06:13:58;8.50;;;4.50;;
19944;SDS011;10134;50.952;6.930;2023-04-15T06:16:25;6.27;;;4.63;;
19944;SDS011;10134;50.952;6.930;2023-04-15T06:18:53;14.37;;;6.77;;
19944;SDS011;10134;50.952;6.930;2023-04-15T06:21:20;7.03;;;5.07;;
19944;SDS011;10134;50.952;6.930;2023-04-15T06:23:47;12.83;;;8.10;;
19944;SDS011;10134;50.952;6.930;2023-04-15T06:26:15;10.50;;;5.70;;
19944;SDS011;10134;50.952;6.930;2023-04-15T06:28:43;9.10;;;5.10;;
19944;SDS011;10134;50.952;6.930;2023-04-15T06:31:10;11.73;;;6.13;;
19944;SDS011;10134;50.952;6.930;2023-04-15T06:33:37;10.33;;;5.83;;
19944;SDS011;10134;50.952;6.930;2023-04-15T06:36:09;8.50;;;4.63;;
19944;SDS011;10134;50.952;6.930;2023-04-15T06:38:37;13.07;;;4.90;;
19944;SDS011;10134;50.952;6.930;2023-04-15T06:41:04;6.13;;;4.70;;
19944;SDS011;10134;50.952;6.930;2023-04-15T06:43:32;8.67;;;5.07;;
19944;SDS011;10134;50.952;6.930;2023-04-15T06:46:00;11.00;;;5.73;;
19944;SDS011;10134;50.952;6.930;2023-04-15T06:48:28;7.30;;;4.33;;
19944;SDS011;10134;50.952;6.930;2023-04-15T06:50:55;7.07;;;4.67;;
19944;SDS011;10134;50.952;6.930;2023-04-15T06:53:24;6.70;;;4.83;;
19944;SDS011;10134;50.952;6.930;2023-04-15T06:55:53;6.13;;;4.13;;
19944;SDS011;10134;50.952;6.930;2023-04-15T06:58:22;9.90;;;4.20;;
19944;SDS011;10134;50.952;6.930;2023-04-15T07:00:49;8.57;;;4.53;;
19944;SDS011;10134;50.952;6.930;2023-04-15T07:03:17;9.15;;;4.70;;
19944;SDS011;10134;50.952;6.930;2023-04-15T07:05:45;7.17;;;4.47;;
19944;SDS011;10134;50.952;6.930;2023-04-15T07:08:12;7.72;;;4.82;;
19944;SDS011;10134;50.952;6.930;2023-04-15T07:10:39;6.80;;;4.95;;
19944;SDS011;10134;50.952;6.930;2023-04-15T07:13:07;5.37;;;4.23;;
19944;SDS011;10134;50.952;6.930;2023-04-15T07:15:34;9.73;;;5.50;;
19944;SDS011;10134;50.952;6.930;2023-04-15T07:18:01;8.45;;;4.90;;
19944;SDS011;10134;50.952;6.930;2023-04-15T07:20:29;7.50;;;5.03;;
19944;SDS011;10134;50.952;6.930;2023-04-15T07:22:58;8.17;;;4.93;;
19944;SDS011;10134;50.952;6.930;2023-04-15T07:25:25;7.53;;;5.07;;
19944;SDS011;10134;50.952;6.930;2023-04-15T07:27:52;9.18;;;5.68;;
19944;SDS011;10134;50.952;6.930;2023-04-15T07:30:20;7.47;;;5.33;;
19944;SDS011;10134;50.952;6.930;2023-04-15T07:32:47;9.93;;;5.88;;
19944;SDS011;10134;50.952;6.930;2023-04-15T07:35:14;9.52;;;5.90;;
19944;SDS011;10134;50.952;6.930;2023-04-15T07:37:42;9.77;;;6.60;;
19944;SDS011;10134;50.952;6.930;2023-04-15T07:40:09;6.43;;;4.75;;
19944;SDS011;10134;50.952;6.930;2023-04-15T07:42:37;11.43;;;5.50;;
19944;SDS011;10134;50.952;6.930;2023-04-15T07:45:07;9.63;;;6.22;;
19944;SDS011;10134;50.952;6.930;2023-04-15T07:47:35;9.68;;;6.47;;
19944;SDS011;10134;50.952;6.930;2023-04-15T07:50:02;11.85;;;6.45;;
19944;SDS011;10134;50.952;6.930;2023-04-15T07:52:30;9.75;;;5.57;;
19944;SDS011;10134;50.952;6.930;2023-04-15T07:54:58;11.07;;;5.40;;
19944;SDS011;10134;50.952;6.930;2023-04-15T07:57:25;6.68;;;5.15;;
19944;SDS011;10134;50.952;6.930;2023-04-15T07:59:52;6.72;;;5.63;;
19944;SDS011;10134;50.952;6.930;2023-04-15T08:02:19;10.32;;;6.53;;
19944;SDS011;10134;50.952;6.930;2023-04-15T08:04:48;8.63;;;5.70;;
19944;SDS011;10134;50.952;6.930;2023-04-15T08:07:15;9.48;;;6.05;;
19944;SDS011;10134;50.952;6.930;2023-04-15T08:09:43;10.30;;;5.50;;
19944;SDS011;10134;50.952;6.930;2023-04-15T08:12:12;9.38;;;4.50;;
19944;SDS011;10134;50.952;6.930;2023-04-15T08:14:39;4.32;;;2.88;;
19944;SDS011;10134;50.952;6.930;2023-04-15T08:17:07;6.60;;;3.63;;
19944;SDS011;10134;50.952;6.930;2023-04-15T08:19:35;4.32;;;2.72;;
19944;SDS011;10134;50.952;6.930;2023-04-15T08:22:02;8.75;;;3.65;;
19944;SDS011;10134;50.952;6.930;2023-04-15T08:24:30;3.95;;;2.28;;
19944;SDS011;10134;50.952;6.930;2023-04-15T08:26:58;10.73;;;5.43;;
19944;SDS011;10134;50.952;6.930;2023-04-15T08:29:25;9.57;;;4.15;;
19944;SDS011;10134;50.952;6.930;2023-04-15T08:31:53;5.18;;;3.33;;
19944;SDS011;10134;50.952;6.930;2023-04-15T08:34:20;4.70;;;2.58;;
19944;SDS011;10134;50.952;6.930;2023-04-15T08:36:48;5.00;;;2.25;;
19944;SDS011;10134;50.952;6.930;2023-04-15T08:39:16;4.50;;;2.00;;
19944;SDS011;10134;50.952;6.930;2023-04-15T08:41:47;2.88;;;1.63;;
19944;SDS011;10134;50.952;6.930;2023-04-15T08:44:27;3.55;;;2.10;;
19944;SDS011;10134;50.952;6.930;2023-04-15T08:46:58;3.38;;;1.40;;
19944;SDS011;10134;50.952;6.930;2023-04-15T08:49:28;6.25;;;1.63;;
19944;SDS011;10134;50.952;6.930;2023-04-15T08:51:57;5.47;;;2.15;;
19944;SDS011;10134;50.952;6.930;2023-04-15T08:54:29;5.10;;;2.60;;
19944;SDS011;10134;50.952;6.930;2023-04-15T08:56:56;4.75;;;2.13;;
19944;SDS011;10134;50.952;6.930;2023-04-15T08:59:24;3.95;;;2.55;;
19944;SDS011;10134;50.952;6.930;2023-04-15T09:01:52;4.18;;;2.28;;
19944;SDS011;10134;50.952;6.930;2023-04-15T09:04:21;4.82;;;2.00;;
19944;SDS011;10134;50.952;6.930;2023-04-15T09:06:48;3.30;;;1.60;;
19944;SDS011;10134;50.952;6.930;2023-04-15T09:09:15;2.75;;;2.10;;
19944;SDS011;10134;50.952;6.930;2023-04-15T09:11:42;6.22;;;2.00;;
19944;SDS011;10134;50.952;6.930;2023-04-15T09:14:10;6.05;;;2.03;;
19944;SDS011;10134;50.952;6.930;2023-04-15T09:16:57;2.90;;;2.10;;
19944;SDS011;10134;50.952;6.930;2023-04-15T09:19:28;6.13;;;2.60;;
19944;SDS011;10134;50.952;6.930;2023-04-15T09:21:58;4.28;;;2.08;;
19944;SDS011;10134;50.952;6.930;2023-04-15T09:24:32;2.72;;;1.75;;
19944;SDS011;10134;50.952;6.930;2023-04-15T09:27:04;3.08;;;2.00;;
19944;SDS011;10134;50.952;6.930;2023-04-15T09:29:32;6.47;;;1.60;;
19944;SDS011;10134;50.952;6.930;2023-04-15T09:32:09;4.35;;;1.83;;
19944;SDS011;10134;50.952;6.930;2023-04-15T09:34:47;2.97;;;1.67;;
19944;SDS011;10134;50.952;6.930;2023-04-15T09:37:15;2.03;;;1.42;;
19944;SDS011;10134;50.952;6.930;2023-04-15T09:39:57;5.43;;;2.00;;
19944;SDS011;10134;50.952;6.930;2023-04-15T09:42:25;2.95;;;1.75;;
19944;SDS011;10134;50.952;6.930;2023-04-15T09:44:54;4.88;;;1.65;;
19944;SDS011;10134;50.952;6.930;2023-04-15T09:47:28;1.90;;;1.58;;
19944;SDS011;10134;50.952;6.930;2023-04-15T09:49:57;4.85;;;2.17;;
19944;SDS011;10134;50.952;6.930;2023-04-15T09:52:26;3.00;;;1.90;;
19944;SDS011;10134;50.952;6.930;2023-04-15T09:54:58;3.22;;;1.60;;
19944;SDS011;10134;50.952;6.930;2023-04-15T09:57:32;3.30;;;1.80;;
19944;SDS011;10134;50.952;6.930;2023-04-15T10:00:02;3.13;;;2.15;;
19944;SDS011;10134;50.952;6.930;2023-04-15T10:02:32;4.78;;;2.25;;
19944;SDS011;10134;50.952;6.930;2023-04-15T10:05:00;2.60;;;1.90;;
19944;SDS011;10134;50.952;6.930;2023-04-15T10:07:28;2.72;;;1.77;;
19944;SDS011;10134;50.952;6.930;2023-04-15T10:09:56;4.43;;;1.95;;
19944;SDS011;10134;50.952;6.930;2023-04-15T10:12:26;4.57;;;1.90;;
19944;SDS011;10134;50.952;6.930;2023-04-15T10:14:59;4.35;;;2.80;;
19944;SDS011;10134;50.952;6.930;2023-04-15T10:17:31;4.28;;;2.35;;
19944;SDS011;10134;50.952;6.930;2023-04-15T10:20:01;4.47;;;2.53;;
19944;SDS011;10134;50.952;6.930;2023-04-15T10:22:31;5.53;;;3.03;;
19944;SDS011;10134;50.952;6.930;2023-04-15T10:24:59;3.75;;;2.70;;
19944;SDS011;10134;50.952;6.930;2023-04-15T10:27:28;3.88;;;2.35;;
19944;SDS011;10134;50.952;6.930;2023-04-15T10:29:56;6.15;;;2.35;;
19944;SDS011;10134;50.952;6.930;2023-04-15T10:32:24;3.38;;;2.25;;
19944;SDS011;10134;50.952;6.930;2023-04-15T10:34:52;2.88;;;2.45;;
19944;SDS011;10134;50.952;6.930;2023-04-15T10:37:21;5.90;;;2.38;;
19944;SDS011;10134;50.952;6.930;2023-04-15T10:39:49;4.60;;;2.50;;
19944;SDS011;10134;50.952;6.930;2023-04-15T10:42:17;4.28;;;2.38;;
19944;SDS011;10134;50.952;6.930;2023-04-15T10:44:49;5.25;;;2.22;;
19944;SDS011;10134;50.952;6.930;2023-04-15T10:47:18;5.28;;;2.70;;
19944;SDS011;10134;50.952;6.930;2023-04-15T10:49:49;3.92;;;2.20;;
19944;SDS011;10134;50.952;6.930;2023-04-15T10:52:21;2.45;;;1.92;;
19944;SDS011;10134;50.952;6.930;2023-04-15T10:55:00;2.50;;;1.90;;
19944;SDS011;10134;50.952;6.930;2023-04-15T10:57:42;5.25;;;2.00;;
19944;SDS011;10134;50.952;6.930;2023-04-15T11:00:11;3.42;;;2.00;;
19944;SDS011;10134;50.952;6.930;2023-04-15T11:02:46;2.47;;;1.83;;
19944;SDS011;10134;50.952;6.930;2023-04-15T11:05:18;2.15;;;1.95;;
19944;SDS011;10134;50.952;6.930;2023-04-15T11:07:53;2.30;;;1.90;;
19944;SDS011;10134;50.952;6.930;2023-04-15T11:12:53;2.55;;;2.35;;
19944;SDS011;10134;50.952;6.930;2023-04-15T11:18:20;3.35;;;2.92;;
19944;SDS011;10134;50.952;6.930;2023-04-15T11:20:57;3.45;;;2.55;;
19944;SDS011;10134;50.952;6.930;2023-04-15T11:23:37;4.38;;;2.45;;
19944;SDS011;10134;50.952;6.930;2023-04-15T11:26:07;3.25;;;2.10;;
19944;SDS011;10134;50.952;6.930;2023-04-15T11:28:39;2.78;;;2.38;;
19944;SDS011;10134;50.952;6.930;2023-04-15T11:31:18;2.42;;;2.15;;
19944;SDS011;10134;50.952;6.930;2023-04-15T11:33:52;3.10;;;2.10;;
19944;SDS011;10134;50.952;6.930;2023-04-15T11:36:25;2.30;;;1.70;;
19944;SDS011;10134;50.952;6.930;2023-04-15T11:38:53;2.75;;;2.20;;
19944;SDS011;10134;50.952;6.930;2023-04-15T11:41:24;2.50;;;1.98;;
19944;SDS011;10134;50.952;6.930;2023-04-15T11:43:51;4.15;;;2.35;;
19944;SDS011;10134;50.952;6.930;2023-04-15T11:46:19;3.15;;;2.13;;
19944;SDS011;10134;50.952;6.930;2023-04-15T11:48:48;2.30;;;2.05;;
19944;SDS011;10134;50.952;6.930;2023-04-15T11:51:15;2.35;;;1.80;;
19944;SDS011;10134;50.952;6.930;2023-04-15T11:53:44;4.07;;;2.10;;
19944;SDS011;10134;50.952;6.930;2023-04-15T11:56:19;2.67;;;2.47;;
19944;SDS011;10134;50.952;6.930;2023-04-15T11:58:57;2.08;;;1.88;;
19944;SDS011;10134;50.952;6.930;2023-04-15T12:01:32;3.25;;;2.80;;
19944;SDS011;10134;50.952;6.930;2023-04-15T12:04:01;4.07;;;3.20;;
19944;SDS011;10134;50.952;6.930;2023-04-15T12:06:31;3.67;;;2.95;;
19944;SDS011;10134;50.952;6.930;2023-04-15T12:11:41;3.60;;;3.30;;
19944;SDS011;10134;50.952;6.930;2023-04-15T12:16:56;4.57;;;4.00;;
19944;SDS011;10134;50.952;6.930;2023-04-15T12:19:27;4.10;;;3.70;;
19944;SDS011;10134;50.952;6.930;2023-04-15T12:21:59;5.00;;;4.47;;
19944;SDS011;10134;50.952;6.930;2023-04-15T12:24:30;8.52;;;5.53;;
19944;SDS011;10134;50.952;6.930;2023-04-15T12:27:02;5.82;;;5.13;;
19944;SDS011;10134;50.952;6.930;2023-04-15T12:29:32;4.88;;;4.38;;
19944;SDS011;10134;50.952;6.930;2023-04-15T12:32:15;5.38;;;4.60;;
19944;SDS011;10134;50.952;6.930;2023-04-15T12:34:50;4.13;;;3.53;;
19944;SDS011;10134;50.952;6.930;2023-04-15T12:37:18;6.07;;;4.93;;
19944;SDS011;10134;50.952;6.930;2023-04-15T12:39:47;4.88;;;4.43;;
19944;SDS011;10134;50.952;6.930;2023-04-15T12:42:16;5.63;;;3.90;;
19944;SDS011;10134;50.952;6.930;2023-04-15T12:44:44;6.47;;;4.00;;
19944;SDS011;10134;50.952;6.930;2023-04-15T12:47:11;4.20;;;3.25;;
19944;SDS011;10134;50.952;6.930;2023-04-15T12:49:39;4.75;;;3.83;;
19944;SDS011;10134;50.952;6.930;2023-04-15T12:52:07;5.40;;;4.13;;
19944;SDS011;10134;50.952;6.930;2023-04-15T12:54:34;6.97;;;3.53;;
19944;SDS011;10134;50.952;6.930;2023-04-15T12:57:02;4.30;;;3.65;;
19944;SDS011;10134;50.952;6.930;2023-04-15T12:59:33;4.57;;;3.38;;
19944;SDS011;10134;50.952;6.930;2023-04-15T13:02:01;3.30;;;3.00;;
19944;SDS011;10134;50.952;6.930;2023-04-15T13:04:30;4.07;;;3.38;;
19944;SDS011;10134;50.952;6.930;2023-04-15T13:06:58;4.63;;;3.30;;
19944;SDS011;10134;50.952;6.930;2023-04-15T13:09:25;5.10;;;3.22;;
19944;SDS011;10134;50.952;6.930;2023-04-15T13:11:53;4.65;;;3.80;;
19944;SDS011;10134;50.952;6.930;2023-04-15T13:14:20;4.15;;;3.25;;
19944;SDS011;10134;50.952;6.930;2023-04-15T13:16:48;3.55;;;3.13;;
19944;SDS011;10134;50.952;6.930;2023-04-15T13:19:16;4.30;;;3.30;;
19944;SDS011;10134;50.952;6.930;2023-04-15T13:21:43;4.22;;;3.38;;
19944;SDS011;10134;50.952;6.930;2023-04-15T13:24:11;3.05;;;2.50;;
19944;SDS011;10134;50.952;6.930;2023-04-15T13:26:38;9.13;;;3.00;;
19944;SDS011;10134;50.952;6.930;2023-04-15T13:29:05;5.63;;;3.70;;
19944;SDS011;10134;50.952;6.930;2023-04-15T13:31:33;3.72;;;2.63;;
19944;SDS011;10134;50.952;6.930;2023-04-15T13:34:00;5.38;;;3.95;;
19944;SDS011;10134;50.952;6.930;2023-04-15T13:36:27;4.85;;;3.20;;
19944;SDS011;10134;50.952;6.930;2023-04-15T13:38:55;3.03;;;2.72;;
19944;SDS011;10134;50.952;6.930;2023-04-15T13:41:23;4.72;;;2.67;;
19944;SDS011;10134;50.952;6.930;2023-04-15T13:43:51;4.50;;;3.38;;
19944;SDS011;10134;50.952;6.930;2023-04-15T13:46:18;2.92;;;2.50;;
19944;SDS011;10134;50.952;6.930;2023-04-15T13:48:45;3.70;;;3.30;;
19944;SDS011;10134;50.952;6.930;2023-04-15T13:51:13;5.22;;;3.10;;
19944;SDS011;10134;50.952;6.930;2023-04-15T13:53:40;6.20;;;3.75;;
19944;SDS011;10134;50.952;6.930;2023-04-15T13:56:08;3.83;;;3.30;;
19944;SDS011;10134;50.952;6.930;2023-04-15T13:58:36;12.23;;;4.03;;
19944;SDS011;10134;50.952;6.930;2023-04-15T14:01:04;6.60;;;3.50;;
19944;SDS011;10134;50.952;6.930;2023-04-15T14:03:33;5.68;;;3.30;;
19944;SDS011;10134;50.952;6.930;2023-04-15T14:06:03;4.72;;;3.38;;
19944;SDS011;10134;50.952;6.930;2023-04-15T14:08:30;4.10;;;3.40;;
19944;SDS011;10134;50.952;6.930;2023-04-15T14:11:01;3.08;;;2.15;;
19944;SDS011;10134;50.952;6.930;2023-04-15T14:13:30;3.30;;;2.50;;
19944;SDS011;10134;50.952;6.930;2023-04-15T14:15:57;3.35;;;2.63;;
19944;SDS011;10134;50.952;6.930;2023-04-15T14:18:25;4.28;;;2.40;;
19944;SDS011;10134;50.952;6.930;2023-04-15T14:20:53;3.97;;;2.45;;
19944;SDS011;10134;50.952;6.930;2023-04-15T14:23:21;3.33;;;2.40;;
19944;SDS011;10134;50.952;6.930;2023-04-15T14:25:49;3.55;;;2.33;;
19944;SDS011;10134;50.952;6.930;2023-04-15T14:28:17;3.83;;;2.58;;
19944;SDS011;10134;50.952;6.930;2023-04-15T14:30:45;3.63;;;2.60;;
19944;SDS011;10134;50.952;6.930;2023-04-15T14:33:12;3.92;;;2.88;;
19944;SDS011;10134;50.952;6.930;2023-04-15T14:35:39;4.80;;;3.42;;
19944;SDS011;10134;50.952;6.930;2023-04-15T14:38:07;4.78;;;3.83;;
19944;SDS011;10134;50.952;6.930;2023-04-15T14:40:39;5.70;;;4.22;;
19944;SDS011;10134;50.952;6.930;2023-04-15T14:43:07;6.85;;;5.30;;
19944;SDS011;10134;50.952;6.930;2023-04-15T14:45:34;6.53;;;4.95;;
19944;SDS011;10134;50.952;6.930;2023-04-15T14:48:02;6.15;;;5.20;;
19944;SDS011;10134;50.952;6.930;2023-04-15T14:50:30;6.38;;;5.45;;
19944;SDS011;10134;50.952;6.930;2023-04-15T14:52:57;6.95;;;4.90;;
19944;SDS011;10134;50.952;6.930;2023-04-15T14:55:25;6.50;;;5.05;;
19944;SDS011;10134;50.952;6.930;2023-04-15T14:57:52;6.20;;;4.22;;
19944;SDS011;10134;50.952;6.930;2023-04-15T15:00:19;8.00;;;4.80;;
19944;SDS011;10134;50.952;6.930;2023-04-15T15:02:47;4.95;;;4.03;;
19944;SDS011;10134;50.952;6.930;2023-04-15T15:05:17;4.70;;;4.05;;